Christine Anderson — WCN2606 — position and weather

sailwx.info

Track history (hours):
 
Tides and Currents Weather Stations Pressure Air Temp Water Temp Dewpoint Dewpoint Depression Visibility Wind Speed Wind Dir Waves Ship Positions

Christine Anderson

Owner: PIERCE, COUNTY OF, TACOMA, WA. More information available from US FCC via Universal Licensing System and Coast Guard Vessel Documentation Center.

Last reported at 2015-Mar-29 05:34 UTC. Time now 2015-Mar-29 07:29 UTC.
Position N 47°11' W 122°40'.

MMSI: 366659730.

Date/timePositionNaut miles runAvg speedWind from/ knotsBaromVisibWave heightAir tempDewpointWater temp
2015-Mar-29 05:34N 47°11' W 122°40'2 2.3
2015-Mar-29 04:34N 47°10' W 122°36'0 0.0
2015-Mar-29 03:33N 47°10' W 122°36'1 0.7
2015-Mar-29 02:33N 47°11' W 122°37'0 0.3
2015-Mar-29 01:33N 47°11' W 122°37'3 2.6
2015-Mar-29 00:33N 47°11' W 122°41'0 0.0
2015-Mar-28 23:34N 47°11' W 122°41'0 0.0
2015-Mar-28 22:33N 47°11' W 122°41'0 0.0
2015-Mar-28 21:33N 47°11' W 122°41'3 3.1
2015-Mar-28 20:34N 47°10' W 122°36'3 2.7
2015-Mar-28 19:33N 47°11' W 122°40'3 2.7
2015-Mar-28 18:33N 47°10' W 122°36'3 2.9
2015-Mar-28 17:33N 47°11' W 122°40'0 0.0
2015-Mar-28 16:30N 47°11' W 122°40'1 0.6
2015-Mar-28 15:33N 47°11' W 122°40'0 0.1
2015-Mar-28 14:33N 47°11' W 122°40'2 2.3
2015-Mar-28 13:33N 47°10' W 122°36'0 0.0
2015-Mar-28 12:34N 47°10' W 122°36'2 0.3
2015-Mar-28 05:33N 47°11' W 122°40'2 2.4
2015-Mar-28 04:34N 47°10' W 122°36'0 0.0
2015-Mar-28 03:34N 47°10' W 122°36'0 0.3
2015-Mar-28 02:33N 47°11' W 122°36'0 0.3
2015-Mar-28 01:33N 47°10' W 122°36'3 2.9
2015-Mar-28 00:34N 47°11' W 122°40'0 0.0
2015-Mar-27 23:33N 47°11' W 122°40'0 0.0
2015-Mar-27 22:33N 47°11' W 122°40'0 0.0
2015-Mar-27 21:34N 47°11' W 122°41'3 2.7
2015-Mar-27 20:28N 47°10' W 122°36'3 3.4
2015-Mar-27 19:33N 47°11' W 122°41'3 3.0
2015-Mar-27 18:33N 47°10' W 122°36'2 2.5
2015-Mar-27 17:33N 47°11' W 122°40'0 0.0
2015-Mar-27 16:33N 47°11' W 122°40'0 0.1
2015-Mar-27 15:34N 47°11' W 122°40'0 0.0
2015-Mar-27 14:34N 47°11' W 122°40'3 2.5
2015-Mar-27 13:33N 47°10' W 122°36'0 0.0
2015-Mar-27 12:33N 47°10' W 122°36'0 0.0
2015-Mar-27 04:32N 47°10' W 122°36'0 0.0
2015-Mar-27 03:33N 47°10' W 122°36'0 0.4
2015-Mar-27 02:33N 47°11' W 122°37'0 0.3
2015-Mar-27 01:33N 47°11' W 122°36'3 2.8
2015-Mar-27 00:32N 47°11' W 122°41'0 0.0
2015-Mar-26 23:33N 47°11' W 122°41'0 0.0
2015-Mar-26 22:33N 47°11' W 122°41'0 0.0
2015-Mar-26 21:29N 47°11' W 122°41'0 0.2
2015-Mar-26 19:33N 47°11' W 122°40'0 0.1
2015-Mar-26 17:33N 47°11' W 122°40'0 0.1
2015-Mar-26 16:33N 47°11' W 122°40'0 0.1
2015-Mar-26 15:33N 47°11' W 122°40'0 0.0
2015-Mar-26 14:33N 47°11' W 122°40'2 2.4
2015-Mar-26 13:33N 47°10' W 122°36'0 0.0
2015-Mar-26 03:19N 47°10' W 122°36'0 0.0
2015-Mar-26 02:19N 47°10' W 122°36'1 0.7
2015-Mar-26 01:33N 47°11' W 122°37'3 2.6
2015-Mar-26 00:33N 47°11' W 122°41'0 0.0
2015-Mar-25 23:32N 47°11' W 122°41'0 0.0
2015-Mar-25 22:30N 47°11' W 122°41'0 0.0
2015-Mar-25 21:33N 47°11' W 122°41'3 2.3
2015-Mar-25 20:13N 47°10' W 122°36'3 4.0
2015-Mar-25 19:33N 47°11' W 122°40'0 0.1
2015-Mar-25 17:33N 47°11' W 122°40'0 0.3
2015-Mar-25 16:33N 47°11' W 122°40'0 0.1
2015-Mar-25 15:33N 47°11' W 122°40'0 0.1
2015-Mar-25 14:33N 47°11' W 122°40'2 2.4
2015-Mar-25 13:31N 47°10' W 122°36'0 0.0
2015-Mar-25 03:21N 47°10' W 122°36'0 0.0
2015-Mar-25 02:33N 47°10' W 122°36'0 0.5
2015-Mar-25 01:33N 47°11' W 122°37'3 2.7
2015-Mar-25 00:32N 47°11' W 122°41'0 0.1
2015-Mar-24 23:33N 47°11' W 122°40'0 0.1
2015-Mar-24 22:33N 47°11' W 122°41'0 0.1
2015-Mar-24 21:33N 47°11' W 122°40'3 2.8
2015-Mar-24 20:31N 47°10' W 122°36'3 2.8
2015-Mar-24 19:33N 47°11' W 122°40'3 2.2
2015-Mar-24 18:22N 47°10' W 122°36'3 3.2
2015-Mar-24 17:33N 47°11' W 122°40'0 0.3
2015-Mar-24 16:33N 47°11' W 122°40'0 0.2
2015-Mar-24 15:33N 47°11' W 122°40'0 0.0
2015-Mar-24 14:33N 47°11' W 122°40'3 2.5
2015-Mar-24 13:32N 47°10' W 122°36'0 0.0
2015-Mar-24 03:18N 47°10' W 122°36'0 0.7
2015-Mar-24 02:33N 47°11' W 122°37'0 0.4
2015-Mar-24 01:32N 47°11' W 122°36'3 3.0
2015-Mar-24 00:33N 47°11' W 122°41'0 0.0
2015-Mar-23 23:33N 47°11' W 122°41'0 0.1
2015-Mar-23 22:31N 47°11' W 122°40'0 0.1
2015-Mar-23 21:33N 47°11' W 122°41'3 2.7
2015-Mar-23 20:33N 47°10' W 122°37'2 2.1
2015-Mar-23 19:33N 47°11' W 122°40'2 2.4
2015-Mar-23 18:33N 47°10' W 122°36'3 2.5
2015-Mar-23 17:33N 47°11' W 122°40'0 0.1
2015-Mar-23 16:33N 47°11' W 122°40'0 0.2
2015-Mar-23 15:33N 47°11' W 122°40'0 0.1
2015-Mar-23 14:33N 47°11' W 122°40'2 2.4
2015-Mar-23 13:33N 47°10' W 122°36'0 0.0
2015-Mar-23 12:29N 47°10' W 122°36'1 0.1
2015-Mar-23 04:32N 47°10' W 122°38'1 1.0
2015-Mar-23 03:33N 47°10' W 122°36'0 0.1
2015-Mar-23 02:31N 47°10' W 122°36'0 0.1
2015-Mar-23 01:33N 47°10' W 122°36'3 3.0
2015-Mar-23 00:32N 47°11' W 122°41'0 0.0
2015-Mar-22 23:33N 47°11' W 122°41'0 0.0
2015-Mar-22 22:30N 47°11' W 122°41'0 0.0
2015-Mar-22 21:33N 47°11' W 122°41'3 3.0
2015-Mar-22 20:33N 47°10' W 122°36'3 3.0
2015-Mar-22 19:33N 47°11' W 122°41'3 3.0
2015-Mar-22 18:32N 47°10' W 122°36'2 2.4
2015-Mar-22 17:33N 47°11' W 122°40'0 0.2
2015-Mar-22 16:33N 47°11' W 122°40'0 0.1
2015-Mar-22 15:33N 47°11' W 122°40'0 0.0
2015-Mar-22 14:33N 47°11' W 122°40'2 2.3
2015-Mar-22 13:31N 47°10' W 122°36'2 0.3
2015-Mar-22 05:33N 47°11' W 122°40'2 2.5
2015-Mar-22 04:33N 47°10' W 122°36'0 0.0
2015-Mar-22 03:33N 47°10' W 122°36'1 0.7
2015-Mar-22 02:33N 47°11' W 122°37'0 0.5
2015-Mar-22 01:33N 47°11' W 122°36'3 2.9
2015-Mar-22 00:33N 47°11' W 122°41'0 0.0
2015-Mar-21 23:30N 47°11' W 122°41'0 0.0
2015-Mar-21 22:33N 47°11' W 122°41'0 0.0
2015-Mar-21 21:33N 47°11' W 122°41'3 3.1
2015-Mar-21 20:33N 47°10' W 122°36'3 2.5
2015-Mar-21 19:33N 47°11' W 122°40'2 2.5
2015-Mar-21 18:33N 47°10' W 122°36'3 2.6
2015-Mar-21 17:24N 47°11' W 122°41'1 0.9
2015-Mar-21 16:33N 47°11' W 122°40'0 0.4
2015-Mar-21 15:32N 47°11' W 122°40'0 0.1
2015-Mar-21 14:33N 47°11' W 122°40'3 2.6
2015-Mar-21 13:33N 47°10' W 122°36'0 0.0
2015-Mar-21 12:33N 47°10' W 122°36'3 0.4
2015-Mar-21 05:33N 47°11' W 122°40'3 2.6
2015-Mar-21 04:28N 47°10' W 122°36'0 0.0
2015-Mar-21 03:33N 47°10' W 122°36'1 0.5
2015-Mar-21 02:33N 47°11' W 122°37'0 0.2
2015-Mar-21 01:33N 47°11' W 122°37'3 2.7
2015-Mar-21 00:33N 47°11' W 122°41'0 0.0
2015-Mar-20 23:33N 47°11' W 122°41'0 0.0
2015-Mar-20 22:32N 47°11' W 122°41'0 0.0
2015-Mar-20 21:33N 47°11' W 122°41'3 2.1
2015-Mar-20 20:06N 47°10' W 122°36'3 5.4
2015-Mar-20 19:33N 47°11' W 122°41'1 0.3
2015-Mar-20 17:33N 47°11' W 122°40'0 0.1
2015-Mar-20 16:33N 47°11' W 122°40'0 0.1
2015-Mar-20 15:33N 47°11' W 122°40'0 0.1
2015-Mar-20 14:33N 47°11' W 122°40'3 2.6
2015-Mar-20 13:33N 47°10' W 122°36'0 0.0
2015-Mar-20 12:33N 47°10' W 122°36'0 0.0
2015-Mar-20 04:28N 47°10' W 122°36'0 0.0
2015-Mar-20 03:33N 47°10' W 122°36'0 0.4
2015-Mar-20 02:33N 47°11' W 122°37'0 0.3
2015-Mar-20 01:33N 47°11' W 122°36'2 2.4
2015-Mar-20 00:33N 47°11' W 122°40'0 0.5
2015-Mar-19 23:33N 47°11' W 122°41'0 0.0
2015-Mar-19 22:28N 47°11' W 122°41'0 0.0
2015-Mar-19 21:30N 47°11' W 122°41'3 2.6
2015-Mar-19 20:19N 47°10' W 122°36'  
Track history (hours):
 
Tides and Currents Weather Stations Pressure Air Temp Water Temp Dewpoint Dewpoint Depression Visibility Wind Speed Wind Dir Waves Ship Positions

Christine Anderson

Owner: PIERCE, COUNTY OF, TACOMA, WA. More information available from US FCC via Universal Licensing System and Coast Guard Vessel Documentation Center.

Last reported at 2015-Mar-29 05:34 UTC. Time now 2015-Mar-29 07:29 UTC.
Position N 47°11' W 122°40'.

MMSI: 366659730.

Date/timePositionNaut miles runAvg speedWind from/ knotsBaromVisibWave heightAir tempDewpointWater temp
2015-Mar-29 05:34N 47°11' W 122°40'2 2.3
2015-Mar-29 04:34N 47°10' W 122°36'0 0.0
2015-Mar-29 03:33N 47°10' W 122°36'1 0.7
2015-Mar-29 02:33N 47°11' W 122°37'0 0.3
2015-Mar-29 01:33N 47°11' W 122°37'3 2.6
2015-Mar-29 00:33N 47°11' W 122°41'0 0.0
2015-Mar-28 23:34N 47°11' W 122°41'0 0.0
2015-Mar-28 22:33N 47°11' W 122°41'0 0.0
2015-Mar-28 21:33N 47°11' W 122°41'3 3.1
2015-Mar-28 20:34N 47°10' W 122°36'3 2.7
2015-Mar-28 19:33N 47°11' W 122°40'3 2.7
2015-Mar-28 18:33N 47°10' W 122°36'3 2.9
2015-Mar-28 17:33N 47°11' W 122°40'0 0.0
2015-Mar-28 16:30N 47°11' W 122°40'1 0.6
2015-Mar-28 15:33N 47°11' W 122°40'0 0.1
2015-Mar-28 14:33N 47°11' W 122°40'2 2.3
2015-Mar-28 13:33N 47°10' W 122°36'0 0.0
2015-Mar-28 12:34N 47°10' W 122°36'2 0.3
2015-Mar-28 05:33N 47°11' W 122°40'2 2.4
2015-Mar-28 04:34N 47°10' W 122°36'0 0.0
2015-Mar-28 03:34N 47°10' W 122°36'0 0.3
2015-Mar-28 02:33N 47°11' W 122°36'0 0.3
2015-Mar-28 01:33N 47°10' W 122°36'3 2.9
2015-Mar-28 00:34N 47°11' W 122°40'0 0.0
2015-Mar-27 23:33N 47°11' W 122°40'0 0.0
2015-Mar-27 22:33N 47°11' W 122°40'0 0.0
2015-Mar-27 21:34N 47°11' W 122°41'3 2.7
2015-Mar-27 20:28N 47°10' W 122°36'3 3.4
2015-Mar-27 19:33N 47°11' W 122°41'3 3.0
2015-Mar-27 18:33N 47°10' W 122°36'2 2.5
2015-Mar-27 17:33N 47°11' W 122°40'0 0.0
2015-Mar-27 16:33N 47°11' W 122°40'0 0.1
2015-Mar-27 15:34N 47°11' W 122°40'0 0.0
2015-Mar-27 14:34N 47°11' W 122°40'3 2.5
2015-Mar-27 13:33N 47°10' W 122°36'0 0.0
2015-Mar-27 12:33N 47°10' W 122°36'0 0.0
2015-Mar-27 04:32N 47°10' W 122°36'0 0.0
2015-Mar-27 03:33N 47°10' W 122°36'0 0.4
2015-Mar-27 02:33N 47°11' W 122°37'0 0.3
2015-Mar-27 01:33N 47°11' W 122°36'3 2.8
2015-Mar-27 00:32N 47°11' W 122°41'0 0.0
2015-Mar-26 23:33N 47°11' W 122°41'0 0.0
2015-Mar-26 22:33N 47°11' W 122°41'0 0.0
2015-Mar-26 21:29N 47°11' W 122°41'0 0.2
2015-Mar-26 19:33N 47°11' W 122°40'0 0.1
2015-Mar-26 17:33N 47°11' W 122°40'0 0.1
2015-Mar-26 16:33N 47°11' W 122°40'0 0.1
2015-Mar-26 15:33N 47°11' W 122°40'0 0.0
2015-Mar-26 14:33N 47°11' W 122°40'2 2.4
2015-Mar-26 13:33N 47°10' W 122°36'0 0.0
2015-Mar-26 03:19N 47°10' W 122°36'0 0.0
2015-Mar-26 02:19N 47°10' W 122°36'1 0.7
2015-Mar-26 01:33N 47°11' W 122°37'3 2.6
2015-Mar-26 00:33N 47°11' W 122°41'0 0.0
2015-Mar-25 23:32N 47°11' W 122°41'0 0.0
2015-Mar-25 22:30N 47°11' W 122°41'0 0.0
2015-Mar-25 21:33N 47°11' W 122°41'3 2.3
2015-Mar-25 20:13N 47°10' W 122°36'3 4.0
2015-Mar-25 19:33N 47°11' W 122°40'0 0.1
2015-Mar-25 17:33N 47°11' W 122°40'0 0.3
2015-Mar-25 16:33N 47°11' W 122°40'0 0.1
2015-Mar-25 15:33N 47°11' W 122°40'0 0.1
2015-Mar-25 14:33N 47°11' W 122°40'2 2.4
2015-Mar-25 13:31N 47°10' W 122°36'0 0.0
2015-Mar-25 03:21N 47°10' W 122°36'0 0.0
2015-Mar-25 02:33N 47°10' W 122°36'0 0.5
2015-Mar-25 01:33N 47°11' W 122°37'3 2.7
2015-Mar-25 00:32N 47°11' W 122°41'0 0.1
2015-Mar-24 23:33N 47°11' W 122°40'0 0.1
2015-Mar-24 22:33N 47°11' W 122°41'0 0.1
2015-Mar-24 21:33N 47°11' W 122°40'3 2.8
2015-Mar-24 20:31N 47°10' W 122°36'3 2.8
2015-Mar-24 19:33N 47°11' W 122°40'3 2.2
2015-Mar-24 18:22N 47°10' W 122°36'3 3.2
2015-Mar-24 17:33N 47°11' W 122°40'0 0.3
2015-Mar-24 16:33N 47°11' W 122°40'0 0.2
2015-Mar-24 15:33N 47°11' W 122°40'0 0.0
2015-Mar-24 14:33N 47°11' W 122°40'3 2.5
2015-Mar-24 13:32N 47°10' W 122°36'0 0.0
2015-Mar-24 03:18N 47°10' W 122°36'0 0.7
2015-Mar-24 02:33N 47°11' W 122°37'0 0.4
2015-Mar-24 01:32N 47°11' W 122°36'3 3.0
2015-Mar-24 00:33N 47°11' W 122°41'0 0.0
2015-Mar-23 23:33N 47°11' W 122°41'0 0.1
2015-Mar-23 22:31N 47°11' W 122°40'0 0.1
2015-Mar-23 21:33N 47°11' W 122°41'3 2.7
2015-Mar-23 20:33N 47°10' W 122°37'2 2.1
2015-Mar-23 19:33N 47°11' W 122°40'2 2.4
2015-Mar-23 18:33N 47°10' W 122°36'3 2.5
2015-Mar-23 17:33N 47°11' W 122°40'0 0.1
2015-Mar-23 16:33N 47°11' W 122°40'0 0.2
2015-Mar-23 15:33N 47°11' W 122°40'0 0.1
2015-Mar-23 14:33N 47°11' W 122°40'2 2.4
2015-Mar-23 13:33N 47°10' W 122°36'0 0.0
2015-Mar-23 12:29N 47°10' W 122°36'1 0.1
2015-Mar-23 04:32N 47°10' W 122°38'1 1.0
2015-Mar-23 03:33N 47°10' W 122°36'0 0.1
2015-Mar-23 02:31N 47°10' W 122°36'0 0.1
2015-Mar-23 01:33N 47°10' W 122°36'3 3.0
2015-Mar-23 00:32N 47°11' W 122°41'0 0.0
2015-Mar-22 23:33N 47°11' W 122°41'0 0.0
2015-Mar-22 22:30N 47°11' W 122°41'0 0.0
2015-Mar-22 21:33N 47°11' W 122°41'3 3.0
2015-Mar-22 20:33N 47°10' W 122°36'3 3.0
2015-Mar-22 19:33N 47°11' W 122°41'3 3.0
2015-Mar-22 18:32N 47°10' W 122°36'2 2.4
2015-Mar-22 17:33N 47°11' W 122°40'0 0.2
2015-Mar-22 16:33N 47°11' W 122°40'0 0.1
2015-Mar-22 15:33N 47°11' W 122°40'0 0.0
2015-Mar-22 14:33N 47°11' W 122°40'2 2.3
2015-Mar-22 13:31N 47°10' W 122°36'2 0.3
2015-Mar-22 05:33N 47°11' W 122°40'2 2.5
2015-Mar-22 04:33N 47°10' W 122°36'0 0.0
2015-Mar-22 03:33N 47°10' W 122°36'1 0.7
2015-Mar-22 02:33N 47°11' W 122°37'0 0.5
2015-Mar-22 01:33N 47°11' W 122°36'3 2.9
2015-Mar-22 00:33N 47°11' W 122°41'0 0.0
2015-Mar-21 23:30N 47°11' W 122°41'0 0.0
2015-Mar-21 22:33N 47°11' W 122°41'0 0.0
2015-Mar-21 21:33N 47°11' W 122°41'3 3.1
2015-Mar-21 20:33N 47°10' W 122°36'3 2.5
2015-Mar-21 19:33N 47°11' W 122°40'2 2.5
2015-Mar-21 18:33N 47°10' W 122°36'3 2.6
2015-Mar-21 17:24N 47°11' W 122°41'1 0.9
2015-Mar-21 16:33N 47°11' W 122°40'0 0.4
2015-Mar-21 15:32N 47°11' W 122°40'0 0.1
2015-Mar-21 14:33N 47°11' W 122°40'3 2.6
2015-Mar-21 13:33N 47°10' W 122°36'0 0.0
2015-Mar-21 12:33N 47°10' W 122°36'3 0.4
2015-Mar-21 05:33N 47°11' W 122°40'3 2.6
2015-Mar-21 04:28N 47°10' W 122°36'0 0.0
2015-Mar-21 03:33N 47°10' W 122°36'1 0.5
2015-Mar-21 02:33N 47°11' W 122°37'0 0.2
2015-Mar-21 01:33N 47°11' W 122°37'3 2.7
2015-Mar-21 00:33N 47°11' W 122°41'0 0.0
2015-Mar-20 23:33N 47°11' W 122°41'0 0.0
2015-Mar-20 22:32N 47°11' W 122°41'0 0.0
2015-Mar-20 21:33N 47°11' W 122°41'3 2.1
2015-Mar-20 20:06N 47°10' W 122°36'3 5.4
2015-Mar-20 19:33N 47°11' W 122°41'1 0.3
2015-Mar-20 17:33N 47°11' W 122°40'0 0.1
2015-Mar-20 16:33N 47°11' W 122°40'0 0.1
2015-Mar-20 15:33N 47°11' W 122°40'0 0.1
2015-Mar-20 14:33N 47°11' W 122°40'3 2.6
2015-Mar-20 13:33N 47°10' W 122°36'0 0.0
2015-Mar-20 12:33N 47°10' W 122°36'0 0.0
2015-Mar-20 04:28N 47°10' W 122°36'0 0.0
2015-Mar-20 03:33N 47°10' W 122°36'0 0.4
2015-Mar-20 02:33N 47°11' W 122°37'0 0.3
2015-Mar-20 01:33N 47°11' W 122°36'2 2.4
2015-Mar-20 00:33N 47°11' W 122°40'0 0.5
2015-Mar-19 23:33N 47°11' W 122°41'0 0.0
2015-Mar-19 22:28N 47°11' W 122°41'0 0.0
2015-Mar-19 21:30N 47°11' W 122°41'3 2.6
2015-Mar-19 20:19N 47°10' W 122°36'  

Dump ship's entire track history